createdAt,value
2024-02-15T00:00:42.274Z,31.74
2024-02-15T00:01:42.298Z,31.73
2024-02-15T00:02:42.369Z,31.77
2024-02-15T00:03:42.435Z,31.75
2024-02-15T00:04:42.484Z,31.76
2024-02-15T00:05:42.528Z,31.71
2024-02-15T00:06:42.610Z,31.77
2024-02-15T00:07:42.628Z,31.79
2024-02-15T00:08:42.710Z,31.74
2024-02-15T00:09:42.722Z,31.74
2024-02-15T00:10:42.804Z,31.74
2024-02-15T00:11:42.877Z,31.76
2024-02-15T00:12:42.896Z,31.78
2024-02-15T00:13:42.963Z,31.74
2024-02-15T00:14:43.040Z,31.79
2024-02-15T00:15:43.083Z,31.76
2024-02-15T00:16:43.120Z,31.78
2024-02-15T00:17:43.229Z,31.78
2024-02-15T00:18:43.325Z,31.76
2024-02-15T00:19:43.732Z,31.74
2024-02-15T00:20:43.383Z,31.77
2024-02-15T00:21:43.374Z,31.79
2024-02-15T00:22:49.396Z,31.78
2024-02-15T00:23:43.469Z,31.84
2024-02-15T00:24:43.441Z,31.78
2024-02-15T00:25:43.433Z,31.79
2024-02-15T00:26:43.450Z,31.76
2024-02-15T00:27:43.443Z,31.79
2024-02-15T00:28:43.465Z,31.80
2024-02-15T00:29:43.470Z,31.76
2024-02-15T00:30:43.453Z,31.78
2024-02-15T00:31:43.440Z,31.79
2024-02-15T00:32:44.448Z,31.74
2024-02-15T00:33:43.634Z,31.74
2024-02-15T00:34:43.520Z,31.78
2024-02-15T00:35:43.486Z,31.78
2024-02-15T00:36:43.479Z,31.82
2024-02-15T00:37:43.471Z,31.79
2024-02-15T00:38:43.502Z,31.74
2024-02-15T00:39:43.475Z,31.77
2024-02-15T00:40:43.454Z,31.77
2024-02-15T00:41:43.743Z,31.79
2024-02-15T00:42:43.457Z,31.79
2024-02-15T00:43:43.466Z,31.74
2024-02-15T00:44:43.488Z,31.74
2024-02-15T00:45:43.469Z,31.75
2024-02-15T00:46:43.455Z,31.75
2024-02-15T00:47:43.815Z,31.77
2024-02-15T00:48:43.543Z,31.78
2024-02-15T00:49:43.633Z,31.77
2024-02-15T00:50:43.572Z,31.77
2024-02-15T00:51:43.473Z,31.74
2024-02-15T00:52:43.475Z,31.79
2024-02-15T00:53:43.500Z,31.75
2024-02-15T00:54:43.484Z,31.79
2024-02-15T00:55:43.495Z,31.75
2024-02-15T00:56:43.587Z,31.72
2024-02-15T00:57:43.537Z,31.75
2024-02-15T00:58:43.582Z,31.80
2024-02-15T00:59:43.664Z,31.75
2024-02-15T01:00:43.758Z,31.78
2024-02-15T01:01:43.761Z,31.77
2024-02-15T01:02:43.880Z,31.75
2024-02-15T01:03:43.883Z,31.75
2024-02-15T01:04:43.899Z,31.78
2024-02-15T01:05:51.091Z,31.74
2024-02-15T01:06:43.963Z,31.83
2024-02-15T01:07:43.953Z,31.80
2024-02-15T01:08:43.957Z,31.75
2024-02-15T01:09:43.962Z,31.76
2024-02-15T01:10:43.979Z,31.78
2024-02-15T01:11:43.995Z,31.76
2024-02-15T01:12:43.951Z,31.75
2024-02-15T01:13:43.964Z,31.76
2024-02-15T01:14:43.953Z,31.78
2024-02-15T01:15:43.983Z,31.77
2024-02-15T01:16:43.956Z,31.77
2024-02-15T01:17:44.010Z,31.73
2024-02-15T01:18:44.096Z,31.74
2024-02-15T01:19:43.981Z,31.73
2024-02-15T01:20:44.030Z,31.77
2024-02-15T01:21:43.965Z,31.78
2024-02-15T01:22:45.977Z,31.79
2024-02-15T01:23:44.002Z,31.79
2024-02-15T01:24:43.963Z,31.79
2024-02-15T01:25:43.986Z,31.79
2024-02-15T01:26:44.028Z,31.77
2024-02-15T01:27:43.995Z,31.77
2024-02-15T01:28:43.978Z,31.77
2024-02-15T01:29:44.027Z,31.76
2024-02-15T01:30:43.965Z,31.77
2024-02-15T01:31:44.026Z,31.77
2024-02-15T01:32:44.370Z,31.76
2024-02-15T01:33:44.189Z,31.78
2024-02-15T01:34:44.209Z,31.76
2024-02-15T01:35:44.212Z,31.78
2024-02-15T01:36:44.245Z,31.76
2024-02-15T01:37:44.258Z,31.77
2024-02-15T01:38:44.379Z,31.79
2024-02-15T01:39:44.334Z,31.79
2024-02-15T01:40:44.373Z,31.74
2024-02-15T01:41:44.474Z,31.80
2024-02-15T01:42:44.480Z,31.80
2024-02-15T01:43:44.532Z,31.74
2024-02-15T01:44:44.600Z,31.75
2024-02-15T01:45:44.616Z,31.77
2024-02-15T01:46:44.663Z,31.76
2024-02-15T01:47:44.892Z,31.75
2024-02-15T01:48:44.929Z,31.79
2024-02-15T01:49:44.827Z,31.76
2024-02-15T01:50:44.870Z,31.76
2024-02-15T01:51:44.886Z,31.76
2024-02-15T01:52:47.375Z,31.78
2024-02-15T01:53:45.067Z,31.77
2024-02-15T01:54:45.060Z,31.78
2024-02-15T01:55:45.093Z,31.78
2024-02-15T01:56:45.118Z,31.76
2024-02-15T01:57:47.386Z,31.82
2024-02-15T01:58:45.209Z,31.76
2024-02-15T01:59:45.252Z,31.77
2024-02-15T02:00:45.323Z,31.77
2024-02-15T02:01:45.360Z,31.80
2024-02-15T02:02:45.411Z,31.77
2024-02-15T02:03:45.546Z,31.76
2024-02-15T02:04:45.476Z,31.78
2024-02-15T02:05:45.540Z,31.77
2024-02-15T02:06:45.628Z,31.81
2024-02-15T02:07:45.616Z,31.83
2024-02-15T02:08:45.651Z,31.79
2024-02-15T02:09:45.666Z,31.81
2024-02-15T02:10:45.721Z,31.81
2024-02-15T02:11:45.843Z,31.83
2024-02-15T02:12:45.823Z,31.79
2024-02-15T02:13:45.922Z,31.78
2024-02-15T02:14:45.910Z,31.83
2024-02-15T02:15:45.950Z,31.77
2024-02-15T02:16:45.984Z,31.78
2024-02-15T02:17:46.081Z,31.81
2024-02-15T02:18:46.246Z,31.76
2024-02-15T02:19:46.200Z,31.79
2024-02-15T02:20:46.220Z,31.80
2024-02-15T02:21:46.218Z,31.79
2024-02-15T02:22:46.263Z,31.78
2024-02-15T02:23:46.433Z,31.80
2024-02-15T02:24:46.347Z,31.77
2024-02-15T02:25:46.414Z,31.79
2024-02-15T02:26:46.519Z,31.81
2024-02-15T02:27:46.503Z,31.81
2024-02-15T02:28:46.544Z,31.83
2024-02-15T02:29:46.757Z,31.82
2024-02-15T02:30:47.015Z,31.82
2024-02-15T02:31:46.702Z,31.81
2024-02-15T02:32:51.942Z,31.81
2024-02-15T02:33:46.890Z,31.83
2024-02-15T02:34:46.749Z,31.79
2024-02-15T02:35:46.771Z,31.81
2024-02-15T02:36:46.748Z,31.76
2024-02-15T02:37:46.735Z,31.82
2024-02-15T02:38:46.798Z,31.81
2024-02-15T02:39:46.888Z,31.81
2024-02-15T02:40:46.821Z,31.78
2024-02-15T02:41:46.883Z,31.85
2024-02-15T02:42:46.889Z,31.82
2024-02-15T02:43:46.922Z,31.78
2024-02-15T02:44:47.000Z,31.80
2024-02-15T02:45:47.015Z,31.78
2024-02-15T02:46:47.064Z,31.77
2024-02-15T02:47:47.768Z,31.82
2024-02-15T02:48:47.259Z,31.82
2024-02-15T02:49:47.210Z,31.79
2024-02-15T02:50:47.204Z,31.81
2024-02-15T02:51:47.257Z,31.79
2024-02-15T02:52:47.306Z,31.77
2024-02-15T02:53:47.504Z,31.77
2024-02-15T02:54:47.407Z,31.81
2024-02-15T02:55:47.424Z,31.75
2024-02-15T02:56:47.470Z,31.76
2024-02-15T02:57:47.491Z,31.81
2024-02-15T02:58:47.514Z,31.83
2024-02-15T02:59:47.587Z,31.79
2024-02-15T03:00:47.628Z,31.78
2024-02-15T03:01:47.642Z,31.78
2024-02-15T03:02:47.791Z,31.78
2024-02-15T03:03:47.732Z,31.78
2024-02-15T03:04:47.822Z,31.78
2024-02-15T03:05:47.869Z,31.75
2024-02-15T03:06:47.843Z,31.78
2024-02-15T03:07:47.892Z,31.77
2024-02-15T03:08:47.932Z,31.78
2024-02-15T03:09:48.005Z,31.80
2024-02-15T03:10:47.992Z,31.77
2024-02-15T03:11:48.086Z,31.78
2024-02-15T03:12:48.995Z,31.77
2024-02-15T03:13:48.100Z,31.75
2024-02-15T03:14:48.187Z,31.77
2024-02-15T03:15:48.185Z,31.81
2024-02-15T03:16:48.317Z,31.80
2024-02-15T03:17:48.510Z,31.78
2024-02-15T03:18:48.399Z,31.79
2024-02-15T03:19:48.390Z,31.77
2024-02-15T03:20:48.443Z,31.75
2024-02-15T03:21:48.445Z,31.79
2024-02-15T03:22:48.493Z,31.78
2024-02-15T03:23:48.580Z,31.76
2024-02-15T03:24:48.543Z,31.78
2024-02-15T03:25:48.588Z,31.79
2024-02-15T03:26:48.671Z,31.82
2024-02-15T03:27:48.677Z,31.82
2024-02-15T03:28:48.678Z,31.80
2024-02-15T03:29:48.756Z,31.87
2024-02-15T03:30:48.768Z,31.77
2024-02-15T03:31:48.857Z,31.78
2024-02-15T03:32:48.954Z,31.80
2024-02-15T03:33:49.134Z,31.83
2024-02-15T03:34:48.948Z,31.79
2024-02-15T03:35:49.022Z,31.79
2024-02-15T03:36:49.005Z,31.75
2024-02-15T03:37:49.055Z,31.76
2024-02-15T03:38:49.081Z,31.80
2024-02-15T03:39:49.132Z,31.81
2024-02-15T03:40:49.144Z,31.77
2024-02-15T03:41:49.193Z,31.77
2024-02-15T03:42:49.186Z,31.81
2024-02-15T03:43:49.260Z,31.78
2024-02-15T03:44:49.306Z,31.75
2024-02-15T03:45:49.311Z,31.75
2024-02-15T03:46:49.342Z,31.73
2024-02-15T03:47:49.424Z,31.81
2024-02-15T03:48:49.411Z,31.77
2024-02-15T03:49:49.438Z,31.79
2024-02-15T03:50:49.496Z,31.80
2024-02-15T03:51:49.522Z,31.80
2024-02-15T03:52:49.537Z,31.82
2024-02-15T03:53:49.604Z,31.80
2024-02-15T03:54:49.601Z,31.75
2024-02-15T03:55:49.622Z,31.76
2024-02-15T03:56:49.676Z,31.76
2024-02-15T03:57:49.705Z,31.77
2024-02-15T03:58:49.729Z,31.82
2024-02-15T03:59:49.798Z,31.78
2024-02-15T04:00:49.845Z,31.78
2024-02-15T04:01:49.859Z,31.81
2024-02-15T04:02:49.927Z,31.79
2024-02-15T04:03:49.911Z,31.81
2024-02-15T04:04:50.055Z,31.76
2024-02-15T04:05:50.116Z,31.77
2024-02-15T04:06:50.153Z,31.83
2024-02-15T04:07:50.061Z,31.76
2024-02-15T04:08:50.089Z,31.77
2024-02-15T04:09:50.178Z,31.75
2024-02-15T04:10:53.580Z,31.77
2024-02-15T04:11:50.147Z,31.76
2024-02-15T04:12:50.144Z,31.79
2024-02-15T04:13:50.136Z,31.80
2024-02-15T04:14:50.266Z,31.77
2024-02-15T04:15:50.150Z,31.77
2024-02-15T04:16:50.253Z,31.78
2024-02-15T04:17:50.237Z,31.79
2024-02-15T04:18:50.216Z,31.80
2024-02-15T04:19:50.225Z,31.78
2024-02-15T04:20:50.371Z,31.79
2024-02-15T04:21:50.161Z,31.79
2024-02-15T04:22:50.130Z,31.78
2024-02-15T04:23:50.215Z,31.76
2024-02-15T04:24:50.132Z,31.77
2024-02-15T04:25:50.146Z,31.75
2024-02-15T04:26:50.189Z,31.73
2024-02-15T04:27:50.158Z,31.76
2024-02-15T04:28:50.163Z,31.75
2024-02-15T04:29:50.200Z,31.75
2024-02-15T04:30:50.239Z,31.77
2024-02-15T04:31:50.175Z,31.76
2024-02-15T04:32:50.197Z,31.80
2024-02-15T04:33:50.388Z,31.75
2024-02-15T04:34:50.196Z,31.73
2024-02-15T04:35:50.240Z,31.76
2024-02-15T04:36:50.161Z,31.78
2024-02-15T04:37:57.875Z,31.80
2024-02-15T04:38:57.912Z,31.79
2024-02-15T04:39:57.946Z,31.80
2024-02-15T04:40:57.890Z,31.76
2024-02-15T04:41:57.930Z,31.78
2024-02-15T04:42:57.885Z,31.77
2024-02-15T04:43:57.885Z,31.77
2024-02-15T04:44:57.914Z,31.77
2024-02-15T04:45:57.902Z,31.77
2024-02-15T04:46:57.910Z,31.81
2024-02-15T04:47:57.926Z,31.76
2024-02-15T04:48:57.899Z,31.75
2024-02-15T04:49:57.933Z,31.79
2024-02-15T04:50:57.930Z,31.79
2024-02-15T04:51:58.273Z,31.76
2024-02-15T04:52:57.908Z,31.77
2024-02-15T04:53:57.952Z,31.77
2024-02-15T04:54:57.918Z,31.79
2024-02-15T04:55:57.917Z,31.77
2024-02-15T04:56:57.928Z,31.77
2024-02-15T04:57:57.927Z,31.81
2024-02-15T04:58:57.931Z,31.81
2024-02-15T04:59:57.945Z,31.76
2024-02-15T05:00:57.958Z,31.73
2024-02-15T05:01:57.949Z,31.77
2024-02-15T05:02:58.010Z,31.75
2024-02-15T05:03:58.051Z,31.78
2024-02-15T05:04:58.404Z,31.82
2024-02-15T05:05:58.139Z,31.78
2024-02-15T05:06:58.149Z,31.77
2024-02-15T05:07:58.145Z,31.79
2024-02-15T05:08:58.224Z,31.77
2024-02-15T05:09:58.203Z,31.77
2024-02-15T05:10:58.252Z,31.78
2024-02-15T05:11:58.341Z,31.78
2024-02-15T05:12:58.309Z,31.76
2024-02-15T05:13:58.350Z,31.76
2024-02-15T05:14:58.390Z,31.75
2024-02-15T05:15:58.400Z,31.76
2024-02-15T05:16:58.456Z,31.75
2024-02-15T05:17:58.574Z,31.76
2024-02-15T05:18:58.670Z,31.76
2024-02-15T05:19:58.613Z,31.73
2024-02-15T05:20:58.622Z,31.75
2024-02-15T05:21:58.725Z,31.75
2024-02-15T05:22:58.655Z,31.79
2024-02-15T05:23:58.894Z,31.77
2024-02-15T05:24:58.702Z,31.74
2024-02-15T05:25:58.705Z,31.76
2024-02-15T05:26:58.760Z,31.76
2024-02-15T05:27:58.771Z,31.84
2024-02-15T05:28:58.830Z,31.78
2024-02-15T05:29:58.881Z,31.78
2024-02-15T05:30:58.886Z,31.77
2024-02-15T05:31:58.908Z,31.81
2024-02-15T05:32:59.059Z,31.78
2024-02-15T05:33:59.141Z,31.80
2024-02-15T05:34:59.032Z,31.77
2024-02-15T05:35:59.066Z,31.78
2024-02-15T05:36:59.076Z,31.76
2024-02-15T05:37:59.093Z,31.77
2024-02-15T05:38:59.181Z,31.76
2024-02-15T05:39:59.176Z,31.75
2024-02-15T05:40:59.218Z,31.79
2024-02-15T05:41:59.246Z,31.78
2024-02-15T05:42:59.275Z,31.81
2024-02-15T05:43:59.289Z,31.80
2024-02-15T05:44:59.354Z,31.79
2024-02-15T05:45:59.338Z,31.78
2024-02-15T05:46:59.362Z,31.78
2024-02-15T05:47:59.442Z,31.79
2024-02-15T05:48:59.513Z,31.76
2024-02-15T05:49:59.435Z,31.77
2024-02-15T05:50:59.537Z,31.75
2024-02-15T05:51:59.534Z,31.74
2024-02-15T05:52:59.721Z,31.74
2024-02-15T05:53:59.743Z,31.74
2024-02-15T05:54:59.604Z,31.76
2024-02-15T05:55:59.600Z,31.75
2024-02-15T05:57:01.288Z,31.75
2024-02-15T05:57:59.662Z,31.75
2024-02-15T05:58:59.661Z,31.74
2024-02-15T06:00:08.464Z,31.75
2024-02-15T06:01:00.786Z,31.77
2024-02-15T06:01:59.708Z,31.75
2024-02-15T06:02:59.744Z,31.79
2024-02-15T06:03:59.719Z,31.75
2024-02-15T06:05:01.580Z,31.74
2024-02-15T06:06:00.061Z,31.74
2024-02-15T06:06:59.835Z,31.73
2024-02-15T06:07:59.689Z,31.73
2024-02-15T06:08:59.725Z,31.74
2024-02-15T06:09:59.693Z,31.75
2024-02-15T06:10:59.712Z,31.73
2024-02-15T06:11:59.712Z,31.73
2024-02-15T06:12:59.698Z,31.72
2024-02-15T06:13:59.714Z,31.76
2024-02-15T06:14:59.737Z,31.77
2024-02-15T06:15:59.706Z,31.73
2024-02-15T06:16:59.717Z,31.74
2024-02-15T06:17:59.798Z,31.74
2024-02-15T06:18:59.846Z,31.74
2024-02-15T06:19:59.748Z,31.73
2024-02-15T06:20:59.765Z,31.73
2024-02-15T06:21:59.731Z,31.76
2024-02-15T06:22:59.726Z,31.73
2024-02-15T06:23:59.780Z,31.73
2024-02-15T06:24:59.729Z,31.75
2024-02-15T06:25:59.827Z,31.72
2024-02-15T06:26:59.751Z,31.77
2024-02-15T06:28:00.076Z,31.75
2024-02-15T06:28:59.761Z,31.77
2024-02-15T06:29:59.771Z,31.78
2024-02-15T06:30:59.735Z,31.82
2024-02-15T06:31:59.735Z,31.80
2024-02-15T06:32:59.827Z,31.73
2024-02-15T06:33:59.937Z,31.74
2024-02-15T06:34:59.813Z,31.70
2024-02-15T06:35:59.844Z,31.75
2024-02-15T06:36:59.752Z,31.71
2024-02-15T06:37:59.737Z,31.71
2024-02-15T06:38:59.857Z,31.72
2024-02-15T06:39:59.774Z,31.69
2024-02-15T06:40:59.757Z,31.70
2024-02-15T06:41:59.792Z,31.69
2024-02-15T06:42:59.756Z,31.68
2024-02-15T06:43:59.752Z,31.72
2024-02-15T06:44:59.856Z,31.70
2024-02-15T06:45:59.757Z,31.66
2024-02-15T06:46:59.765Z,31.70
2024-02-15T06:47:59.948Z,31.72
2024-02-15T06:49:00.086Z,31.69
2024-02-15T06:49:59.810Z,31.71
2024-02-15T06:50:59.787Z,31.70
2024-02-15T06:51:59.776Z,31.68
2024-02-15T06:52:59.785Z,31.70
2024-02-15T06:53:59.827Z,31.66
2024-02-15T06:54:59.771Z,31.71
2024-02-15T06:55:59.773Z,31.68
2024-02-15T06:56:59.798Z,31.72
2024-02-15T06:57:59.794Z,31.70
2024-02-15T06:58:59.783Z,31.69
2024-02-15T06:59:59.866Z,31.70
2024-02-15T07:00:59.826Z,31.71
2024-02-15T07:01:59.804Z,31.68
2024-02-15T07:02:59.796Z,31.67
2024-02-15T07:04:00.052Z,31.70
2024-02-15T07:04:59.783Z,31.71
2024-02-15T07:05:59.855Z,31.63
2024-02-15T07:06:59.963Z,31.68
2024-02-15T07:07:59.786Z,31.76
2024-02-15T07:08:59.868Z,31.70
2024-02-15T07:09:59.807Z,31.68
2024-02-15T07:10:59.838Z,31.70
2024-02-15T07:11:59.888Z,31.65
2024-02-15T07:12:59.809Z,31.66
2024-02-15T07:13:59.804Z,31.71
2024-02-15T07:14:59.930Z,31.68
2024-02-15T07:15:59.808Z,31.64
2024-02-15T07:17:00.091Z,31.65
2024-02-15T07:17:59.868Z,31.65
2024-02-15T07:18:59.951Z,31.63
2024-02-15T07:19:59.911Z,31.68
2024-02-15T07:20:59.877Z,31.67
2024-02-15T07:21:59.822Z,31.70
2024-02-15T07:22:59.809Z,31.63
2024-02-15T07:23:59.872Z,31.61
2024-02-15T07:24:59.846Z,31.64
2024-02-15T07:25:59.872Z,31.64
2024-02-15T07:26:59.912Z,31.70
2024-02-15T07:27:59.939Z,31.64
2024-02-15T07:28:59.971Z,31.70
2024-02-15T07:30:00.012Z,31.72
2024-02-15T07:31:00.009Z,31.73
2024-02-15T07:32:00.046Z,31.64
2024-02-15T07:33:00.122Z,31.63
2024-02-15T07:34:00.335Z,31.60
2024-02-15T07:35:00.198Z,31.67
2024-02-15T07:36:00.168Z,31.62
2024-02-15T07:37:00.153Z,31.61
2024-02-15T07:38:00.183Z,31.58
2024-02-15T07:39:00.285Z,31.61
2024-02-15T07:40:00.319Z,31.63
2024-02-15T07:41:00.292Z,31.57
2024-02-15T07:42:00.362Z,31.57
2024-02-15T07:43:00.319Z,31.58
2024-02-15T07:44:00.360Z,31.60
2024-02-15T07:45:00.458Z,31.56
2024-02-15T07:46:00.403Z,31.59
2024-02-15T07:47:00.424Z,31.60
2024-02-15T07:48:00.585Z,31.61
2024-02-15T07:49:00.607Z,31.56
2024-02-15T07:50:00.549Z,31.53
2024-02-15T07:51:00.590Z,31.55
2024-02-15T07:52:00.556Z,31.52
2024-02-15T07:53:00.582Z,31.54
2024-02-15T07:54:01.162Z,31.54
2024-02-15T07:55:00.645Z,31.54
2024-02-15T07:56:00.693Z,31.55
2024-02-15T07:57:00.767Z,31.55
2024-02-15T07:58:00.737Z,31.50
2024-02-15T07:59:00.757Z,31.51
2024-02-15T08:00:00.880Z,31.57
2024-02-15T08:01:00.820Z,31.52
2024-02-15T08:02:00.818Z,31.55
2024-02-15T08:03:00.940Z,31.53
2024-02-15T08:04:00.875Z,31.50
2024-02-15T08:05:00.992Z,31.43
2024-02-15T08:06:00.947Z,31.55
2024-02-15T08:07:01.003Z,31.49
2024-02-15T08:08:00.954Z,31.46
2024-02-15T08:09:00.994Z,31.53
2024-02-15T08:10:01.005Z,31.48
2024-02-15T08:11:00.998Z,31.57
2024-02-15T08:12:01.084Z,31.47
2024-02-15T08:13:01.058Z,31.53
2024-02-15T08:14:01.097Z,31.53
2024-02-15T08:15:01.150Z,31.50
2024-02-15T08:16:01.140Z,31.55
2024-02-15T08:17:01.161Z,31.52
2024-02-15T08:18:01.343Z,31.52
2024-02-15T08:19:01.361Z,31.50
2024-02-15T08:20:01.342Z,31.47
2024-02-15T08:21:01.253Z,31.49
2024-02-15T08:22:01.268Z,31.50
2024-02-15T08:23:01.268Z,31.50
2024-02-15T08:24:01.392Z,31.53
2024-02-15T08:25:01.319Z,31.44
2024-02-15T08:26:01.356Z,31.45
2024-02-15T08:27:01.412Z,31.42
2024-02-15T08:28:01.409Z,31.48
2024-02-15T08:29:01.412Z,31.49
2024-02-15T08:30:01.515Z,31.52
2024-02-15T08:31:01.460Z,31.45
2024-02-15T08:32:01.468Z,31.44
2024-02-15T08:33:01.616Z,31.40
2024-02-15T08:34:04.151Z,31.43
2024-02-15T08:35:01.597Z,31.46
2024-02-15T08:36:01.605Z,31.43
2024-02-15T08:37:01.598Z,31.54
2024-02-15T08:38:01.530Z,31.43
2024-02-15T08:39:01.601Z,31.50
2024-02-15T08:40:01.559Z,31.44
2024-02-15T08:41:01.517Z,31.49
2024-02-15T08:42:01.635Z,31.45
2024-02-15T08:43:01.532Z,31.42
2024-02-15T08:44:01.540Z,31.41
2024-02-15T08:45:01.582Z,31.50
2024-02-15T08:46:01.544Z,31.43
2024-02-15T08:47:01.529Z,31.45
2024-02-15T08:48:01.662Z,31.38
2024-02-15T08:49:01.634Z,31.41
2024-02-15T08:50:01.709Z,31.37
2024-02-15T08:51:01.663Z,31.38
2024-02-15T08:52:01.620Z,31.40
2024-02-15T08:53:01.544Z,31.29
2024-02-15T08:54:01.680Z,31.38
2024-02-15T08:55:01.570Z,31.37
2024-02-15T08:56:01.610Z,31.39
2024-02-15T08:57:01.592Z,31.37
2024-02-15T08:58:01.576Z,31.34
2024-02-15T08:59:03.869Z,31.36
2024-02-15T09:00:01.618Z,31.33
2024-02-15T09:01:01.673Z,31.38
2024-02-15T09:02:01.592Z,31.33
2024-02-15T09:03:01.644Z,31.33
2024-02-15T09:04:01.670Z,31.37
2024-02-15T09:05:01.600Z,31.36
2024-02-15T09:06:01.691Z,31.31
2024-02-15T09:07:01.706Z,31.36
2024-02-15T09:08:01.586Z,31.28
2024-02-15T09:09:01.655Z,31.28
2024-02-15T09:10:09.303Z,31.34
2024-02-15T09:11:09.334Z,31.36
2024-02-15T09:12:09.307Z,31.29
2024-02-15T09:13:09.302Z,31.34
2024-02-15T09:14:09.316Z,31.29
2024-02-15T09:15:09.371Z,31.33
2024-02-15T09:16:09.304Z,31.30
2024-02-15T09:17:09.331Z,31.26
2024-02-15T09:18:09.381Z,31.36
2024-02-15T09:19:09.495Z,31.29
2024-02-15T09:20:09.303Z,31.28
2024-02-15T09:21:09.382Z,31.30
2024-02-15T09:22:09.313Z,31.32
2024-02-15T09:23:09.344Z,31.30
2024-02-15T09:24:09.363Z,31.22
2024-02-15T09:25:09.316Z,31.28
2024-02-15T09:26:09.335Z,31.23
2024-02-15T09:27:09.380Z,31.23
2024-02-15T09:28:09.328Z,31.21
2024-02-15T09:29:09.346Z,31.21
2024-02-15T09:30:09.454Z,31.21
2024-02-15T09:31:09.407Z,31.24
2024-02-15T09:32:09.445Z,31.21
2024-02-15T09:33:09.551Z,31.29
2024-02-15T09:34:09.800Z,31.23
2024-02-15T09:35:09.776Z,31.21
2024-02-15T09:36:09.632Z,31.21
2024-02-15T09:37:09.637Z,31.20
2024-02-15T09:38:09.723Z,31.16
2024-02-15T09:39:09.799Z,31.22
2024-02-15T09:40:09.819Z,31.19
2024-02-15T09:41:09.805Z,31.17
2024-02-15T09:42:09.944Z,31.14
2024-02-15T09:43:09.890Z,31.16
2024-02-15T09:44:09.938Z,31.17
2024-02-15T09:45:10.073Z,31.17
2024-02-15T09:46:10.012Z,31.16
2024-02-15T09:47:10.149Z,31.15
2024-02-15T09:48:10.450Z,31.19
2024-02-15T09:49:10.514Z,31.17
2024-02-15T09:50:10.232Z,31.18
2024-02-15T09:51:10.406Z,31.20
2024-02-15T09:52:10.318Z,31.18
2024-02-15T09:53:10.414Z,31.18
2024-02-15T09:54:10.677Z,31.18
2024-02-15T09:55:10.468Z,31.19
2024-02-15T09:56:10.519Z,31.16
2024-02-15T09:57:10.628Z,31.19
2024-02-15T09:58:10.722Z,31.21
2024-02-15T09:59:10.658Z,31.22
2024-02-15T10:00:10.750Z,31.19
2024-02-15T10:01:11.505Z,31.19
2024-02-15T10:02:10.814Z,31.19
2024-02-15T10:03:10.991Z,31.18
2024-02-15T10:04:10.947Z,31.17
2024-02-15T10:05:10.968Z,31.16
2024-02-15T10:06:11.133Z,31.16
2024-02-15T10:07:11.214Z,31.17
2024-02-15T10:08:11.118Z,31.16
2024-02-15T10:09:11.222Z,31.18
2024-02-15T10:10:11.246Z,31.19
2024-02-15T10:11:11.673Z,31.19
2024-02-15T10:12:11.445Z,31.18
2024-02-15T10:13:11.417Z,31.13
2024-02-15T10:14:11.517Z,31.12
2024-02-15T10:15:11.562Z,31.18
2024-02-15T10:16:11.584Z,31.18
2024-02-15T10:17:11.620Z,31.12
2024-02-15T10:18:12.054Z,31.11
2024-02-15T10:19:11.944Z,31.10
2024-02-15T10:20:11.772Z,31.10
2024-02-15T10:21:11.831Z,31.12
2024-02-15T10:22:11.876Z,31.12
2024-02-15T10:23:11.973Z,31.11
2024-02-15T10:24:11.994Z,31.08
2024-02-15T10:25:12.019Z,31.10
2024-02-15T10:26:12.108Z,31.11
2024-02-15T10:27:12.160Z,31.13
2024-02-15T10:28:12.254Z,31.14
2024-02-15T10:29:12.576Z,31.19
2024-02-15T10:30:12.320Z,31.21
2024-02-15T10:31:12.364Z,31.22
2024-02-15T10:32:12.417Z,31.22
2024-02-15T10:33:12.579Z,31.21
2024-02-15T10:34:12.814Z,31.22
2024-02-15T10:35:12.652Z,31.24
2024-02-15T10:36:13.662Z,31.24
2024-02-15T10:37:12.715Z,31.22
2024-02-15T10:38:13.766Z,31.19
2024-02-15T10:39:12.884Z,31.19
2024-02-15T10:40:12.869Z,31.21
2024-02-15T10:41:12.945Z,31.22
2024-02-15T10:42:13.159Z,31.19
2024-02-15T10:43:13.055Z,31.19
2024-02-15T10:44:13.124Z,31.19
2024-02-15T10:45:13.658Z,31.20
2024-02-15T10:46:13.226Z,31.20
2024-02-15T10:47:13.278Z,31.20
2024-02-15T10:48:13.496Z,31.21
2024-02-15T10:49:13.503Z,31.19
2024-02-15T10:50:13.513Z,31.18
2024-02-15T10:51:13.531Z,31.21
2024-02-15T10:52:13.538Z,31.20
2024-02-15T10:53:13.580Z,31.17
2024-02-15T10:54:13.730Z,31.20
2024-02-15T10:55:13.701Z,31.16
2024-02-15T10:56:13.778Z,31.14
2024-02-15T10:57:14.072Z,31.17
2024-02-15T10:58:13.841Z,31.15
2024-02-15T10:59:13.875Z,31.14
2024-02-15T11:00:13.969Z,31.14
2024-02-15T11:01:14.040Z,31.12
2024-02-15T11:02:14.060Z,31.08
2024-02-15T11:03:14.101Z,31.10
2024-02-15T11:04:14.113Z,31.09
2024-02-15T11:05:14.254Z,31.08
2024-02-15T11:06:14.445Z,31.08
2024-02-15T11:07:14.621Z,31.06
2024-02-15T11:08:14.348Z,31.05
2024-02-15T11:09:14.369Z,31.06
2024-02-15T11:10:14.398Z,31.02
2024-02-15T11:11:14.454Z,31.01
2024-02-15T11:12:14.493Z,31.02
2024-02-15T11:13:14.499Z,31.00
2024-02-15T11:14:14.549Z,30.99
2024-02-15T11:15:14.643Z,30.98
2024-02-15T11:16:14.613Z,30.97
2024-02-15T11:17:14.661Z,30.94
2024-02-15T11:18:14.723Z,30.94
2024-02-15T11:19:14.769Z,30.94
2024-02-15T11:20:14.740Z,30.94
2024-02-15T11:21:14.815Z,30.92
2024-02-15T11:22:14.828Z,30.91
2024-02-15T11:23:19.792Z,30.91
2024-02-15T11:24:15.912Z,30.92
2024-02-15T11:25:14.840Z,30.89
2024-02-15T11:26:14.845Z,30.89
2024-02-15T11:27:14.958Z,30.89
2024-02-15T11:28:14.835Z,30.86
2024-02-15T11:29:14.844Z,30.84
2024-02-15T11:30:14.887Z,30.86
2024-02-15T11:31:14.851Z,30.82
2024-02-15T11:32:14.850Z,30.81
2024-02-15T11:33:14.958Z,30.76
2024-02-15T11:34:15.014Z,30.75
2024-02-15T11:35:15.539Z,30.74
2024-02-15T11:36:14.898Z,30.73
2024-02-15T11:37:14.865Z,30.72
2024-02-15T11:38:14.850Z,30.73
2024-02-15T11:39:14.897Z,30.71
2024-02-15T11:40:14.851Z,30.66
2024-02-15T11:41:14.856Z,30.63
2024-02-15T11:42:14.926Z,30.62
2024-02-15T11:43:14.865Z,30.63
2024-02-15T11:44:14.864Z,30.64
2024-02-15T11:45:14.909Z,30.61
2024-02-15T11:46:15.091Z,30.58
2024-02-15T11:47:14.862Z,30.58
2024-02-15T11:48:15.189Z,30.57
2024-02-15T11:49:15.004Z,30.57
2024-02-15T11:50:14.920Z,30.57
2024-02-15T11:51:14.941Z,30.54
2024-02-15T11:52:14.985Z,30.51
2024-02-15T11:53:15.009Z,30.53
2024-02-15T11:54:15.105Z,30.54
2024-02-15T11:55:15.080Z,30.49
2024-02-15T11:56:15.092Z,30.48
2024-02-15T11:57:15.435Z,30.46
2024-02-15T11:58:15.140Z,30.48
2024-02-15T11:59:15.169Z,30.45
2024-02-15T12:00:15.238Z,30.43
2024-02-15T12:01:15.229Z,30.43
2024-02-15T12:02:15.219Z,30.43
2024-02-15T12:03:15.265Z,30.40
2024-02-15T12:04:15.282Z,30.38
2024-02-15T12:05:15.356Z,30.37
2024-02-15T12:06:15.546Z,30.39
2024-02-15T12:07:15.524Z,30.37
2024-02-15T12:08:15.421Z,30.36
2024-02-15T12:09:15.599Z,30.37
2024-02-15T12:10:15.559Z,30.34
2024-02-15T12:11:15.620Z,30.36
2024-02-15T12:12:15.740Z,30.37
2024-02-15T12:13:15.730Z,30.37
2024-02-15T12:14:15.774Z,30.35
2024-02-15T12:15:15.837Z,30.37
2024-02-15T12:16:15.881Z,30.39
2024-02-15T12:17:15.939Z,30.36
2024-02-15T12:18:16.075Z,30.35
2024-02-15T12:19:16.137Z,30.33
2024-02-15T12:20:16.098Z,30.32
2024-02-15T12:21:16.257Z,30.33
2024-02-15T12:22:21.241Z,30.31
2024-02-15T12:23:16.212Z,30.30
2024-02-15T12:24:16.279Z,30.27
2024-02-15T12:25:16.235Z,30.26
2024-02-15T12:26:16.217Z,30.23
2024-02-15T12:27:16.248Z,30.28
2024-02-15T12:28:16.247Z,30.27
2024-02-15T12:29:16.238Z,30.25
2024-02-15T12:30:17.275Z,30.27
2024-02-15T12:31:16.336Z,30.20
2024-02-15T12:32:16.400Z,30.17
2024-02-15T12:33:16.611Z,30.15
2024-02-15T12:34:16.530Z,30.18
2024-02-15T12:35:16.589Z,30.16
2024-02-15T12:36:16.624Z,30.15
2024-02-15T12:37:16.775Z,30.14
2024-02-15T12:38:16.792Z,30.12
2024-02-15T12:39:16.830Z,30.19
2024-02-15T12:40:16.850Z,30.22
2024-02-15T12:41:16.832Z,30.22
2024-02-15T12:42:16.899Z,30.21
2024-02-15T12:43:16.974Z,30.19
2024-02-15T12:44:16.946Z,30.16
2024-02-15T12:45:17.107Z,30.12
2024-02-15T12:46:17.045Z,30.11
2024-02-15T12:47:17.085Z,30.17
2024-02-15T12:48:17.348Z,30.17
2024-02-15T12:49:17.260Z,30.18
2024-02-15T12:50:17.271Z,30.21
2024-02-15T12:51:17.281Z,30.23
2024-02-15T12:52:17.266Z,30.26
2024-02-15T12:53:17.325Z,30.28